sensor_id;sensor_type;location;lat;lon;timestamp;pressure;altitude;pressure_sealevel;temperature;humidity
47280;BME280;34064;44.942;0.008;2023-01-25T00:00:47;100574.63;;;3.49;59.07
47280;BME280;34064;44.942;0.008;2023-01-25T00:03:15;100583.44;;;3.45;58.93
47280;BME280;34064;44.942;0.008;2023-01-25T00:05:43;100572.13;;;3.41;58.84
47280;BME280;34064;44.942;0.008;2023-01-25T00:08:10;100575.69;;;3.37;58.90
47280;BME280;34064;44.942;0.008;2023-01-25T00:10:38;100581.00;;;3.34;58.94
47280;BME280;34064;44.942;0.008;2023-01-25T00:13:05;100581.91;;;3.32;58.97
47280;BME280;34064;44.942;0.008;2023-01-25T00:15:33;100574.06;;;3.30;59.16
47280;BME280;34064;44.942;0.008;2023-01-25T00:18:00;100569.72;;;3.29;59.27
47280;BME280;34064;44.942;0.008;2023-01-25T00:20:28;100571.50;;;3.27;59.13
47280;BME280;34064;44.942;0.008;2023-01-25T00:22:55;100565.38;;;3.26;59.28
47280;BME280;34064;44.942;0.008;2023-01-25T00:25:22;100568.88;;;3.27;59.18
47280;BME280;34064;44.942;0.008;2023-01-25T00:27:50;100566.19;;;3.30;59.38
47280;BME280;34064;44.942;0.008;2023-01-25T00:30:18;100563.53;;;3.32;59.33
47280;BME280;34064;44.942;0.008;2023-01-25T00:33:06;100565.31;;;3.31;59.41
47280;BME280;34064;44.942;0.008;2023-01-25T00:35:50;100564.44;;;3.31;59.41
47280;BME280;34064;44.942;0.008;2023-01-25T00:38:38;100568.81;;;3.30;59.29
47280;BME280;34064;44.942;0.008;2023-01-25T00:41:06;100565.31;;;3.31;59.30
47280;BME280;34064;44.942;0.008;2023-01-25T00:43:34;100564.44;;;3.31;59.57
47280;BME280;34064;44.942;0.008;2023-01-25T00:46:02;100574.03;;;3.33;59.50
47280;BME280;34064;44.942;0.008;2023-01-25T00:48:33;100567.00;;;3.35;59.38
47280;BME280;34064;44.942;0.008;2023-01-25T00:51:01;100572.16;;;3.38;59.64
47280;BME280;34064;44.942;0.008;2023-01-25T00:53:27;100573.91;;;3.39;59.78
47280;BME280;34064;44.942;0.008;2023-01-25T00:55:54;100572.13;;;3.41;59.80
47280;BME280;34064;44.942;0.008;2023-01-25T00:58:21;100567.72;;;3.43;59.44
47280;BME280;34064;44.942;0.008;2023-01-25T01:00:50;100565.09;;;3.43;59.91
47280;BME280;34064;44.942;0.008;2023-01-25T01:03:17;100562.44;;;3.43;59.67
47280;BME280;34064;44.942;0.008;2023-01-25T01:05:45;100566.81;;;3.43;59.52
47280;BME280;34064;44.942;0.008;2023-01-25T01:08:13;100565.09;;;3.43;59.73
47280;BME280;34064;44.942;0.008;2023-01-25T01:10:41;100565.03;;;3.45;60.08
47280;BME280;34064;44.942;0.008;2023-01-25T01:13:09;100558.94;;;3.45;60.17
47280;BME280;34064;44.942;0.008;2023-01-25T01:15:36;100558.94;;;3.45;59.96
47280;BME280;34064;44.942;0.008;2023-01-25T01:18:04;100558.09;;;3.42;59.93
47280;BME280;34064;44.942;0.008;2023-01-25T01:20:31;100557.19;;;3.43;59.74
47280;BME280;34064;44.942;0.008;2023-01-25T01:22:59;100559.81;;;3.43;59.85
47280;BME280;34064;44.942;0.008;2023-01-25T01:25:26;100567.66;;;3.45;60.10
47280;BME280;34064;44.942;0.008;2023-01-25T01:27:54;100563.25;;;3.46;59.86
47280;BME280;34064;44.942;0.008;2023-01-25T01:30:21;100564.09;;;3.48;59.78
47280;BME280;34064;44.942;0.008;2023-01-25T01:32:51;100558.84;;;3.48;60.10
47280;BME280;34064;44.942;0.008;2023-01-25T01:35:18;100554.44;;;3.50;60.12
47280;BME280;34064;44.942;0.008;2023-01-25T01:37:45;100557.97;;;3.49;60.30
47280;BME280;34064;44.942;0.008;2023-01-25T01:40:14;100563.22;;;3.49;60.18
47280;BME280;34064;44.942;0.008;2023-01-25T01:43:01;100570.22;;;3.50;60.32
47280;BME280;34064;44.942;0.008;2023-01-25T01:45:55;100576.31;;;3.50;60.21
47280;BME280;34064;44.942;0.008;2023-01-25T01:51:13;100564.94;;;3.50;60.56
47280;BME280;34064;44.942;0.008;2023-01-25T01:53:43;100568.34;;;3.55;60.21
47280;BME280;34064;44.942;0.008;2023-01-25T01:56:14;100563.94;;;3.57;60.41
47280;BME280;34064;44.942;0.008;2023-01-25T01:58:44;100570.03;;;3.59;60.30
47280;BME280;34064;44.942;0.008;2023-01-25T02:01:12;100564.72;;;3.62;60.38
47280;BME280;34064;44.942;0.008;2023-01-25T02:03:39;100568.16;;;3.64;60.41
47280;BME280;34064;44.942;0.008;2023-01-25T02:06:11;100556.75;;;3.67;60.11
47280;BME280;34064;44.942;0.008;2023-01-25T02:08:39;100564.63;;;3.65;60.47
47280;BME280;34064;44.942;0.008;2023-01-25T02:11:08;100563.78;;;3.65;60.40
47280;BME280;34064;44.942;0.008;2023-01-25T02:13:37;100562.91;;;3.64;60.31
47280;BME280;34064;44.942;0.008;2023-01-25T02:16:03;100562.84;;;3.67;60.71
47280;BME280;34064;44.942;0.008;2023-01-25T02:18:31;100562.81;;;3.70;60.86
47280;BME280;34064;44.942;0.008;2023-01-25T02:21:00;100562.72;;;3.73;60.51
47280;BME280;34064;44.942;0.008;2023-01-25T02:24:03;100565.28;;;3.77;60.65
47280;BME280;34064;44.942;0.008;2023-01-25T02:26:33;100569.59;;;3.81;60.63
47280;BME280;34064;44.942;0.008;2023-01-25T02:29:06;100573.03;;;3.83;60.60
47280;BME280;34064;44.942;0.008;2023-01-25T02:31:34;100573.00;;;3.86;60.78
47280;BME280;34064;44.942;0.008;2023-01-25T02:34:01;100561.53;;;3.90;60.75
47280;BME280;34064;44.942;0.008;2023-01-25T02:36:30;100562.31;;;3.94;61.09
47280;BME280;34064;44.942;0.008;2023-01-25T02:39:03;100552.59;;;3.97;60.69
47280;BME280;34064;44.942;0.008;2023-01-25T02:44:03;100551.66;;;4.01;60.96
47280;BME280;34064;44.942;0.008;2023-01-25T02:46:33;100553.44;;;3.99;61.64
47280;BME280;34064;44.942;0.008;2023-01-25T02:49:02;100551.66;;;4.01;61.51
47280;BME280;34064;44.942;0.008;2023-01-25T02:51:32;100539.31;;;4.03;61.01
47280;BME280;34064;44.942;0.008;2023-01-25T02:54:02;100543.72;;;4.03;60.87
47280;BME280;34064;44.942;0.008;2023-01-25T02:56:30;100542.84;;;4.02;61.23
47280;BME280;34064;44.942;0.008;2023-01-25T02:59:02;100546.34;;;4.03;60.87
47280;BME280;34064;44.942;0.008;2023-01-25T03:01:37;100542.84;;;4.02;61.39
47280;BME280;34064;44.942;0.008;2023-01-25T03:04:05;100541.94;;;4.03;61.23
47280;BME280;34064;44.942;0.008;2023-01-25T03:06:34;100542.78;;;4.05;61.22
47280;BME280;34064;44.942;0.008;2023-01-25T03:09:04;100538.41;;;4.06;61.37
47280;BME280;34064;44.942;0.008;2023-01-25T03:11:32;100541.84;;;4.08;61.31
47280;BME280;34064;44.942;0.008;2023-01-25T03:14:01;100532.19;;;4.09;61.24
47280;BME280;34064;44.942;0.008;2023-01-25T03:16:29;100526.84;;;4.12;60.94
47280;BME280;34064;44.942;0.008;2023-01-25T03:18:56;100530.31;;;4.14;61.28
47280;BME280;34064;44.942;0.008;2023-01-25T03:21:24;100524.13;;;4.16;61.14
47280;BME280;34064;44.942;0.008;2023-01-25T03:23:59;100519.75;;;4.17;61.53
47280;BME280;34064;44.942;0.008;2023-01-25T03:26:27;100515.31;;;4.19;61.34
47280;BME280;34064;44.942;0.008;2023-01-25T03:28:54;100521.38;;;4.21;61.37
47280;BME280;34064;44.942;0.008;2023-01-25T03:31:21;100516.94;;;4.25;61.12
47280;BME280;34064;44.942;0.008;2023-01-25T03:33:57;100518.63;;;4.27;61.35
47280;BME280;34064;44.942;0.008;2023-01-25T03:36:27;100512.38;;;4.31;61.13
47280;BME280;34064;44.942;0.008;2023-01-25T03:38:54;100512.38;;;4.31;61.14
47280;BME280;34064;44.942;0.008;2023-01-25T03:41:20;100510.59;;;4.33;61.51
47280;BME280;34064;44.942;0.008;2023-01-25T03:43:47;100498.25;;;4.35;61.21
47280;BME280;34064;44.942;0.008;2023-01-25T03:46:13;100501.78;;;4.34;61.59
47280;BME280;34064;44.942;0.008;2023-01-25T03:48:39;100502.66;;;4.35;61.54
47280;BME280;34064;44.942;0.008;2023-01-25T03:51:15;100511.47;;;4.34;61.68
47280;BME280;34064;44.942;0.008;2023-01-25T03:53:42;100515.00;;;4.33;62.05
47280;BME280;34064;44.942;0.008;2023-01-25T03:56:10;100508.78;;;4.35;61.85
47280;BME280;34064;44.942;0.008;2023-01-25T03:58:39;100514.88;;;4.37;61.84
47280;BME280;34064;44.942;0.008;2023-01-25T04:01:13;100505.16;;;4.40;61.47
47280;BME280;34064;44.942;0.008;2023-01-25T04:03:45;100505.16;;;4.40;61.53
47280;BME280;34064;44.942;0.008;2023-01-25T04:06:12;100496.38;;;4.41;61.68
47280;BME280;34064;44.942;0.008;2023-01-25T04:08:39;100505.16;;;4.41;61.75
47280;BME280;34064;44.942;0.008;2023-01-25T04:11:15;100498.09;;;4.42;62.10
47280;BME280;34064;44.942;0.008;2023-01-25T04:13:42;100498.94;;;4.44;61.54
47280;BME280;34064;44.942;0.008;2023-01-25T04:16:10;100497.16;;;4.44;61.63
47280;BME280;34064;44.942;0.008;2023-01-25T04:18:37;100499.78;;;4.46;61.55
47280;BME280;34064;44.942;0.008;2023-01-25T04:21:12;100499.78;;;4.46;61.83
47280;BME280;34064;44.942;0.008;2023-01-25T04:23:39;100498.03;;;4.45;61.85
47280;BME280;34064;44.942;0.008;2023-01-25T04:26:07;100498.88;;;4.45;62.14
47280;BME280;34064;44.942;0.008;2023-01-25T04:28:36;100492.72;;;4.46;62.34
47280;BME280;34064;44.942;0.008;2023-01-25T04:31:02;100501.50;;;4.47;nan
47280;BME280;34064;44.942;0.008;2023-01-25T04:33:36;100492.72;;;4.46;62.55
47280;BME280;34064;44.942;0.008;2023-01-25T04:36:03;100497.09;;;4.47;62.14
47280;BME280;34064;44.942;0.008;2023-01-25T04:38:29;100499.69;;;4.49;61.93
47280;BME280;34064;44.942;0.008;2023-01-25T04:40:57;100490.88;;;4.50;62.07
47280;BME280;34064;44.942;0.008;2023-01-25T04:43:24;100497.88;;;4.51;62.09
47280;BME280;34064;44.942;0.008;2023-01-25T04:45:52;100495.22;;;4.52;62.06
47280;BME280;34064;44.942;0.008;2023-01-25T04:48:22;100496.91;;;4.55;61.76
47280;BME280;34064;44.942;0.008;2023-01-25T04:50:52;100501.28;;;4.56;61.93
47280;BME280;34064;44.942;0.008;2023-01-25T04:53:19;100494.19;;;4.58;61.90
47280;BME280;34064;44.942;0.008;2023-01-25T04:55:47;100501.19;;;4.59;61.99
47280;BME280;34064;44.942;0.008;2023-01-25T04:58:14;100495.91;;;4.59;62.05
47280;BME280;34064;44.942;0.008;2023-01-25T05:03:21;100490.66;;;4.59;61.97
47280;BME280;34064;44.942;0.008;2023-01-25T05:05:49;100484.50;;;4.60;61.93
47280;BME280;34064;44.942;0.008;2023-01-25T05:08:16;100485.38;;;4.59;62.06
47280;BME280;34064;44.942;0.008;2023-01-25T05:10:52;100481.00;;;4.60;62.35
47280;BME280;34064;44.942;0.008;2023-01-25T05:13:22;100480.97;;;4.61;62.04
47280;BME280;34064;44.942;0.008;2023-01-25T05:15:50;100485.38;;;4.59;62.02
47280;BME280;34064;44.942;0.008;2023-01-25T05:18:17;100480.13;;;4.59;62.28
47280;BME280;34064;44.942;0.008;2023-01-25T05:20:52;100481.84;;;4.60;62.25
47280;BME280;34064;44.942;0.008;2023-01-25T05:23:23;100480.94;;;4.63;62.26
47280;BME280;34064;44.942;0.008;2023-01-25T05:25:51;100477.44;;;4.62;62.21
47280;BME280;34064;44.942;0.008;2023-01-25T05:28:36;100476.53;;;4.63;62.00
47280;BME280;34064;44.942;0.008;2023-01-25T05:31:03;100482.66;;;4.64;62.23
47280;BME280;34064;44.942;0.008;2023-01-25T05:33:32;100477.34;;;4.65;62.20
47280;BME280;34064;44.942;0.008;2023-01-25T05:36:05;100485.25;;;4.65;62.30
47280;BME280;34064;44.942;0.008;2023-01-25T05:38:34;100480.00;;;4.65;62.42
47280;BME280;34064;44.942;0.008;2023-01-25T05:41:01;100484.34;;;4.66;62.07
47280;BME280;34064;44.942;0.008;2023-01-25T05:43:31;100486.94;;;4.68;62.54
47280;BME280;34064;44.942;0.008;2023-01-25T05:46:04;100479.00;;;4.69;62.32
47280;BME280;34064;44.942;0.008;2023-01-25T05:48:35;100480.72;;;4.71;61.97
47280;BME280;34064;44.942;0.008;2023-01-25T05:51:08;100477.25;;;4.70;62.35
47280;BME280;34064;44.942;0.008;2023-01-25T05:53:39;100484.25;;;4.71;62.51
47280;BME280;34064;44.942;0.008;2023-01-25T05:56:08;100475.44;;;4.72;62.55
47280;BME280;34064;44.942;0.008;2023-01-25T05:58:42;100472.75;;;4.74;62.35
47280;BME280;34064;44.942;0.008;2023-01-25T06:01:12;100471.88;;;4.73;62.21
47280;BME280;34064;44.942;0.008;2023-01-25T06:03:40;100474.50;;;4.75;62.17
47280;BME280;34064;44.942;0.008;2023-01-25T06:06:07;100470.97;;;4.74;62.26
47280;BME280;34064;44.942;0.008;2023-01-25T06:08:35;100470.06;;;4.75;62.45
47280;BME280;34064;44.942;0.008;2023-01-25T06:11:16;100468.31;;;4.76;62.51
47280;BME280;34064;44.942;0.008;2023-01-25T06:13:44;100463.91;;;4.76;62.63
47280;BME280;34064;44.942;0.008;2023-01-25T06:16:12;100457.78;;;4.76;62.47
47280;BME280;34064;44.942;0.008;2023-01-25T06:18:43;100462.16;;;4.77;62.45
47280;BME280;34064;44.942;0.008;2023-01-25T06:21:10;100458.59;;;4.78;62.24
47280;BME280;34064;44.942;0.008;2023-01-25T06:23:38;100464.78;;;4.77;nan
47280;BME280;34064;44.942;0.008;2023-01-25T06:26:11;100458.59;;;4.78;62.35
47280;BME280;34064;44.942;0.008;2023-01-25T06:28:39;100451.63;;;4.77;62.33
47280;BME280;34064;44.942;0.008;2023-01-25T06:31:17;100456.84;;;4.78;62.17
47280;BME280;34064;44.942;0.008;2023-01-25T06:33:50;100456.88;;;4.77;62.47
47280;BME280;34064;44.942;0.008;2023-01-25T06:36:26;100462.97;;;4.79;62.55
47280;BME280;34064;44.942;0.008;2023-01-25T06:38:54;100462.97;;;4.79;62.46
47280;BME280;34064;44.942;0.008;2023-01-25T06:41:24;100464.69;;;4.80;62.67
47280;BME280;34064;44.942;0.008;2023-01-25T06:44:01;100456.78;;;4.80;62.49
47280;BME280;34064;44.942;0.008;2023-01-25T06:46:30;100463.78;;;4.81;63.31
47280;BME280;34064;44.942;0.008;2023-01-25T06:48:58;100462.00;;;4.83;62.75
47280;BME280;34064;44.942;0.008;2023-01-25T06:51:25;100470.78;;;4.82;62.62
47280;BME280;34064;44.942;0.008;2023-01-25T06:53:52;100460.19;;;4.83;62.79
47280;BME280;34064;44.942;0.008;2023-01-25T06:56:22;100462.81;;;4.85;62.84
47280;BME280;34064;44.942;0.008;2023-01-25T06:58:53;100465.44;;;4.85;62.83
47280;BME280;34064;44.942;0.008;2023-01-25T07:01:22;100470.72;;;4.85;62.93
47280;BME280;34064;44.942;0.008;2023-01-25T07:03:54;100468.03;;;4.87;62.78
47280;BME280;34064;44.942;0.008;2023-01-25T07:06:29;100469.75;;;4.88;62.85
47280;BME280;34064;44.942;0.008;2023-01-25T07:09:05;100469.81;;;4.86;62.72
47280;BME280;34064;44.942;0.008;2023-01-25T07:11:34;100474.16;;;4.87;62.98
47280;BME280;34064;44.942;0.008;2023-01-25T07:14:02;100479.41;;;4.87;62.88
47280;BME280;34064;44.942;0.008;2023-01-25T07:16:30;100481.13;;;4.90;62.92
47280;BME280;34064;44.942;0.008;2023-01-25T07:19:06;100474.06;;;4.90;62.89
47280;BME280;34064;44.942;0.008;2023-01-25T07:21:37;100483.72;;;4.91;62.84
47280;BME280;34064;44.942;0.008;2023-01-25T07:24:05;100474.91;;;4.92;62.86
47280;BME280;34064;44.942;0.008;2023-01-25T07:26:33;100482.81;;;4.92;62.89
47280;BME280;34064;44.942;0.008;2023-01-25T07:28:59;100488.06;;;4.92;62.98
47280;BME280;34064;44.942;0.008;2023-01-25T07:31:26;100483.66;;;4.93;62.81
47280;BME280;34064;44.942;0.008;2023-01-25T07:33:55;100481.00;;;4.94;62.81
47280;BME280;34064;44.942;0.008;2023-01-25T07:36:25;100481.81;;;4.96;63.14
47280;BME280;34064;44.942;0.008;2023-01-25T07:38:54;100490.59;;;4.97;62.76
47280;BME280;34064;44.942;0.008;2023-01-25T07:41:23;100484.44;;;4.96;63.00
47280;BME280;34064;44.942;0.008;2023-01-25T07:43:51;100483.53;;;4.97;62.80
47280;BME280;34064;44.942;0.008;2023-01-25T07:46:17;100483.53;;;4.97;62.97
47280;BME280;34064;44.942;0.008;2023-01-25T07:48:50;100488.78;;;4.99;62.84
47280;BME280;34064;44.942;0.008;2023-01-25T07:51:18;100482.63;;;4.98;62.93
47280;BME280;34064;44.942;0.008;2023-01-25T07:53:59;100478.28;;;4.97;62.99
47280;BME280;34064;44.942;0.008;2023-01-25T07:56:28;100485.25;;;5.00;62.96
47280;BME280;34064;44.942;0.008;2023-01-25T07:58:56;100484.38;;;4.99;63.35
47280;BME280;34064;44.942;0.008;2023-01-25T08:01:25;100484.31;;;5.01;63.08
47280;BME280;34064;44.942;0.008;2023-01-25T08:03:53;100486.03;;;5.04;63.10
47280;BME280;34064;44.942;0.008;2023-01-25T08:06:33;100475.50;;;5.04;63.28
47280;BME280;34064;44.942;0.008;2023-01-25T08:09:04;100481.53;;;5.07;63.16
47280;BME280;34064;44.942;0.008;2023-01-25T08:11:34;100473.66;;;5.06;63.23
47280;BME280;34064;44.942;0.008;2023-01-25T08:14:00;100485.03;;;5.08;63.15
47280;BME280;34064;44.942;0.008;2023-01-25T08:16:29;100485.00;;;5.09;63.10
47280;BME280;34064;44.942;0.008;2023-01-25T08:18:58;100477.91;;;5.11;63.14
47280;BME280;34064;44.942;0.008;2023-01-25T08:21:29;100478.78;;;5.12;63.10
47280;BME280;34064;44.942;0.008;2023-01-25T08:23:58;100483.09;;;5.14;63.33
47280;BME280;34064;44.942;0.008;2023-01-25T08:26:25;100480.50;;;5.13;63.24
47280;BME280;34064;44.942;0.008;2023-01-25T08:28:53;100475.13;;;5.16;63.27
47280;BME280;34064;44.942;0.008;2023-01-25T08:31:23;100467.22;;;5.18;63.30
47280;BME280;34064;44.942;0.008;2023-01-25T08:33:55;100473.34;;;5.18;63.43
47280;BME280;34064;44.942;0.008;2023-01-25T08:36:24;100475.06;;;5.19;63.54
47280;BME280;34064;44.942;0.008;2023-01-25T08:39:05;100473.25;;;5.21;63.62
47280;BME280;34064;44.942;0.008;2023-01-25T08:41:34;100478.41;;;5.24;63.78
47280;BME280;34064;44.942;0.008;2023-01-25T08:44:01;100464.34;;;5.25;63.94
47280;BME280;34064;44.942;0.008;2023-01-25T08:46:31;100463.41;;;5.28;63.99
47280;BME280;34064;44.942;0.008;2023-01-25T08:49:02;100462.53;;;5.27;63.99
47280;BME280;34064;44.942;0.008;2023-01-25T08:51:33;100476.53;;;5.29;63.97
47280;BME280;34064;44.942;0.008;2023-01-25T08:54:09;100474.72;;;5.31;64.07
47280;BME280;34064;44.942;0.008;2023-01-25T08:56:41;100482.53;;;5.35;64.04
47280;BME280;34064;44.942;0.008;2023-01-25T08:59:12;100473.69;;;5.37;64.26
47280;BME280;34064;44.942;0.008;2023-01-25T09:01:39;100479.81;;;5.38;64.37
47280;BME280;34064;44.942;0.008;2023-01-25T09:04:05;100485.00;;;5.41;64.33
47280;BME280;34064;44.942;0.008;2023-01-25T09:06:32;100480.59;;;5.41;64.50
47280;BME280;34064;44.942;0.008;2023-01-25T09:09:00;100482.31;;;5.42;64.33
47280;BME280;34064;44.942;0.008;2023-01-25T09:11:29;100485.84;;;5.43;64.23
47280;BME280;34064;44.942;0.008;2023-01-25T09:13:55;100471.69;;;5.45;64.37
47280;BME280;34064;44.942;0.008;2023-01-25T09:16:23;100470.69;;;5.50;64.24
47280;BME280;34064;44.942;0.008;2023-01-25T09:18:55;100461.94;;;5.49;64.06
47280;BME280;34064;44.942;0.008;2023-01-25T09:21:22;100465.38;;;5.51;64.38
47280;BME280;34064;44.942;0.008;2023-01-25T09:23:49;100450.38;;;5.53;64.19
47280;BME280;34064;44.942;0.008;2023-01-25T09:26:18;100457.34;;;5.56;64.35
47280;BME280;34064;44.942;0.008;2023-01-25T09:28:51;100461.66;;;5.58;64.55
47280;BME280;34064;44.942;0.008;2023-01-25T09:31:18;100470.47;;;5.57;64.27
47280;BME280;34064;44.942;0.008;2023-01-25T09:33:46;100466.94;;;5.58;64.45
47280;BME280;34064;44.942;0.008;2023-01-25T09:36:12;100473.94;;;5.59;64.21
47280;BME280;34064;44.942;0.008;2023-01-25T09:38:39;100484.38;;;5.62;64.38
47280;BME280;34064;44.942;0.008;2023-01-25T09:41:17;100474.66;;;5.65;64.29
47280;BME280;34064;44.942;0.008;2023-01-25T09:44:27;100471.94;;;5.68;64.30
47280;BME280;34064;44.942;0.008;2023-01-25T09:47:19;100474.63;;;5.66;64.11
47280;BME280;34064;44.942;0.008;2023-01-25T09:55:00;100477.13;;;5.71;64.23
47280;BME280;34064;44.942;0.008;2023-01-25T09:57:38;100463.00;;;5.72;64.45
47280;BME280;34064;44.942;0.008;2023-01-25T10:00:18;100466.38;;;5.77;64.16
47280;BME280;34064;44.942;0.008;2023-01-25T10:05:47;100460.19;;;5.78;64.19
47280;BME280;34064;44.942;0.008;2023-01-25T10:10:47;100453.91;;;5.82;64.19
47280;BME280;34064;44.942;0.008;2023-01-25T10:13:20;100465.34;;;5.81;64.14
47280;BME280;34064;44.942;0.008;2023-01-25T10:21:32;100461.72;;;5.85;64.36
47280;BME280;34064;44.942;0.008;2023-01-25T10:26:50;100458.09;;;5.89;64.30
47280;BME280;34064;44.942;0.008;2023-01-25T10:29:28;100460.81;;;5.86;64.44
47280;BME280;34064;44.942;0.008;2023-01-25T10:32:21;100464.28;;;5.88;64.47
47280;BME280;34064;44.942;0.008;2023-01-25T10:34:51;100459.84;;;5.89;64.50
47280;BME280;34064;44.942;0.008;2023-01-25T10:37:33;100459.00;;;5.88;64.43
47280;BME280;34064;44.942;0.008;2023-01-25T10:40:23;100459.81;;;5.90;64.42
47280;BME280;34064;44.942;0.008;2023-01-25T10:43:01;100450.97;;;5.91;64.16
47280;BME280;34064;44.942;0.008;2023-01-25T10:45:32;100453.59;;;5.93;64.22
47280;BME280;34064;44.942;0.008;2023-01-25T10:48:06;100441.25;;;5.93;64.32
47280;BME280;34064;44.942;0.008;2023-01-25T10:50:42;100442.13;;;5.94;64.44
47280;BME280;34064;44.942;0.008;2023-01-25T10:53:28;100443.88;;;5.93;64.39
47280;BME280;34064;44.942;0.008;2023-01-25T10:59:14;100437.63;;;5.98;64.38
47280;BME280;34064;44.942;0.008;2023-01-25T11:01:41;100442.91;;;5.98;64.39
47280;BME280;34064;44.942;0.008;2023-01-25T11:04:33;100442.00;;;5.97;64.44
47280;BME280;34064;44.942;0.008;2023-01-25T11:07:04;100434.06;;;5.99;64.24
47280;BME280;34064;44.942;0.008;2023-01-25T11:09:32;100430.50;;;6.01;64.06
47280;BME280;34064;44.942;0.008;2023-01-25T11:15:22;100419.03;;;6.02;64.19
47280;BME280;34064;44.942;0.008;2023-01-25T11:18:04;100411.06;;;6.04;64.38
47280;BME280;34064;44.942;0.008;2023-01-25T11:20:32;100403.97;;;6.06;64.28
47280;BME280;34064;44.942;0.008;2023-01-25T11:22:58;100405.56;;;6.10;64.05
47280;BME280;34064;44.942;0.008;2023-01-25T11:25:30;100385.34;;;6.11;64.12
47280;BME280;34064;44.942;0.008;2023-01-25T11:28:29;100378.19;;;6.14;63.87
47280;BME280;34064;44.942;0.008;2023-01-25T11:30:59;100376.53;;;6.12;63.96
47280;BME280;34064;44.942;0.008;2023-01-25T11:33:26;100382.66;;;6.12;63.84
47280;BME280;34064;44.942;0.008;2023-01-25T11:38:50;100371.09;;;6.16;63.65
47280;BME280;34064;44.942;0.008;2023-01-25T11:41:48;100370.22;;;6.16;63.62
47280;BME280;34064;44.942;0.008;2023-01-25T11:47:18;100351.66;;;6.19;63.59
47280;BME280;34064;44.942;0.008;2023-01-25T11:49:53;100351.44;;;6.25;63.24
47280;BME280;34064;44.942;0.008;2023-01-25T11:52:39;100352.41;;;6.22;63.40
47280;BME280;34064;44.942;0.008;2023-01-25T11:55:17;100348.84;;;6.23;63.44
47280;BME280;34064;44.942;0.008;2023-01-25T12:06:14;100336.34;;;6.29;63.04
47280;BME280;34064;44.942;0.008;2023-01-25T12:09:17;100320.41;;;6.32;63.08
47280;BME280;34064;44.942;0.008;2023-01-25T12:15:01;100325.78;;;6.29;62.80
47280;BME280;34064;44.942;0.008;2023-01-25T12:25:53;100307.31;;;6.29;62.82
47280;BME280;34064;44.942;0.008;2023-01-25T12:31:36;100297.56;;;6.31;62.56
47280;BME280;34064;44.942;0.008;2023-01-25T12:34:23;100292.28;;;6.31;62.63
47280;BME280;34064;44.942;0.008;2023-01-25T12:36:52;100301.13;;;6.30;nan
47280;BME280;34064;44.942;0.008;2023-01-25T12:39:36;100291.44;;;6.30;62.58
47280;BME280;34064;44.942;0.008;2023-01-25T12:45:23;100288.75;;;6.32;62.70
47280;BME280;34064;44.942;0.008;2023-01-25T12:50:58;100278.19;;;6.32;62.58
47280;BME280;34064;44.942;0.008;2023-01-25T12:53:37;100268.38;;;6.35;62.36
47280;BME280;34064;44.942;0.008;2023-01-25T12:56:31;100253.28;;;6.39;61.93
47280;BME280;34064;44.942;0.008;2023-01-25T12:59:16;100255.06;;;6.38;61.88
47280;BME280;34064;44.942;0.008;2023-01-25T13:01:47;100246.28;;;6.38;61.89
47280;BME280;34064;44.942;0.008;2023-01-25T13:04:52;100237.69;;;6.33;61.89
47280;BME280;34064;44.942;0.008;2023-01-25T13:07:42;100227.97;;;6.33;61.73
47280;BME280;34064;44.942;0.008;2023-01-25T13:10:22;100229.69;;;6.34;62.03
47280;BME280;34064;44.942;0.008;2023-01-25T13:13:02;100225.28;;;6.35;61.91
47280;BME280;34064;44.942;0.008;2023-01-25T13:15:44;100220.00;;;6.35;62.08
47280;BME280;34064;44.942;0.008;2023-01-25T13:20:59;100213.69;;;6.39;61.80
47280;BME280;34064;44.942;0.008;2023-01-25T13:23:33;100204.00;;;6.39;61.88
47280;BME280;34064;44.942;0.008;2023-01-25T13:27:09;100196.75;;;6.45;61.72
47280;BME280;34064;44.942;0.008;2023-01-25T13:32:02;100200.50;;;6.39;61.80
47280;BME280;34064;44.942;0.008;2023-01-25T13:37:28;100192.56;;;6.39;62.08
47280;BME280;34064;44.942;0.008;2023-01-25T13:40:00;100196.03;;;6.41;62.15
47280;BME280;34064;44.942;0.008;2023-01-25T13:42:35;100197.75;;;6.42;61.96
47280;BME280;34064;44.942;0.008;2023-01-25T13:47:34;100181.84;;;6.44;62.04
47280;BME280;34064;44.942;0.008;2023-01-25T13:50:23;100176.56;;;6.44;62.16
47280;BME280;34064;44.942;0.008;2023-01-25T13:55:45;100176.63;;;6.42;62.11
47280;BME280;34064;44.942;0.008;2023-01-25T13:58:44;100173.88;;;6.45;62.22
47280;BME280;34064;44.942;0.008;2023-01-25T14:01:18;100174.72;;;6.46;61.95
47280;BME280;34064;44.942;0.008;2023-01-25T14:03:51;100169.53;;;6.44;61.94
47280;BME280;34064;44.942;0.008;2023-01-25T14:06:23;100180.09;;;6.44;61.88
47280;BME280;34064;44.942;0.008;2023-01-25T14:08:51;100174.97;;;6.39;62.07
47280;BME280;34064;44.942;0.008;2023-01-25T14:11:20;100170.53;;;6.40;62.03
47280;BME280;34064;44.942;0.008;2023-01-25T14:14:28;100165.25;;;6.40;62.20
47280;BME280;34064;44.942;0.008;2023-01-25T14:19:43;100166.97;;;6.41;62.13
47280;BME280;34064;44.942;0.008;2023-01-25T14:22:25;100163.53;;;6.39;62.17
47280;BME280;34064;44.942;0.008;2023-01-25T14:25:05;100167.09;;;6.38;62.47
47280;BME280;34064;44.942;0.008;2023-01-25T14:30:30;100167.91;;;6.40;62.37
47280;BME280;34064;44.942;0.008;2023-01-25T14:33:02;100162.69;;;6.38;62.34
47280;BME280;34064;44.942;0.008;2023-01-25T14:35:36;100158.25;;;6.39;62.34
47280;BME280;34064;44.942;0.008;2023-01-25T14:40:45;100160.91;;;6.39;62.54
47280;BME280;34064;44.942;0.008;2023-01-25T14:43:14;100156.44;;;6.41;62.39
47280;BME280;34064;44.942;0.008;2023-01-25T14:45:40;100151.16;;;6.41;62.48
47280;BME280;34064;44.942;0.008;2023-01-25T14:51:13;100143.22;;;6.41;62.33
47280;BME280;34064;44.942;0.008;2023-01-25T14:53:46;100147.69;;;6.39;62.31
47280;BME280;34064;44.942;0.008;2023-01-25T14:58:52;100149.44;;;6.40;62.51
47280;BME280;34064;44.942;0.008;2023-01-25T15:01:38;100142.38;;;6.40;62.59